createdAt,value
2023-04-28T00:00:59.835Z,54
2023-04-28T00:02:06.851Z,54
2023-04-28T00:03:14.653Z,57
2023-04-28T00:04:22.037Z,55
2023-04-28T00:05:28.268Z,59
2023-04-28T00:06:35.069Z,58
2023-04-28T00:07:41.843Z,58
2023-04-28T00:08:48.723Z,61
2023-04-28T00:09:55.509Z,61
2023-04-28T00:11:02.368Z,58
2023-04-28T00:12:12.087Z,53
2023-04-28T00:13:18.883Z,55
2023-04-28T00:14:25.716Z,54
2023-04-28T00:15:32.593Z,56
2023-04-28T00:16:40.408Z,59
2023-04-28T00:17:47.301Z,60
2023-04-28T00:18:54.100Z,65
2023-04-28T00:20:00.921Z,68
2023-04-28T00:21:08.172Z,73
2023-04-28T00:22:14.996Z,73
2023-04-28T00:23:21.874Z,67
2023-04-28T00:24:28.733Z,71
2023-04-28T00:25:35.591Z,72
2023-04-28T00:26:42.486Z,72
2023-04-28T00:27:49.297Z,77
2023-04-28T00:28:56.162Z,74
2023-04-28T00:30:03.077Z,72
2023-04-28T00:31:10.381Z,68
2023-04-28T00:32:18.072Z,69
2023-04-28T00:33:25.090Z,73
2023-04-28T00:34:32.028Z,72
2023-04-28T00:35:41.835Z,67
2023-04-28T00:36:48.805Z,66
2023-04-28T00:37:55.676Z,70
2023-04-28T00:39:02.496Z,69
2023-04-28T00:40:09.328Z,71
2023-04-28T00:41:16.436Z,75
2023-04-28T00:42:23.227Z,72
2023-04-28T00:43:30.845Z,70
2023-04-28T00:44:38.552Z,73
2023-04-28T00:45:45.427Z,74
2023-04-28T00:46:53.106Z,70
2023-04-28T00:48:00.193Z,79
2023-04-28T00:49:06.962Z,79
2023-04-28T00:50:13.740Z,75
2023-04-28T00:51:20.572Z,70
2023-04-28T00:52:27.372Z,74
2023-04-28T00:53:34.176Z,84
2023-04-28T00:54:40.995Z,76
2023-04-28T00:55:47.775Z,80
2023-04-28T00:56:54.529Z,75
2023-04-28T00:58:02.195Z,78
2023-04-28T00:59:09.081Z,84
2023-04-28T01:00:15.990Z,74
2023-04-28T01:01:22.868Z,73
2023-04-28T01:02:29.813Z,72
2023-04-28T01:03:36.681Z,71
2023-04-28T01:04:43.594Z,69
2023-04-28T01:05:50.400Z,74
2023-04-28T01:06:57.237Z,70
2023-04-28T01:08:04.021Z,65
2023-04-28T01:09:10.797Z,65
2023-04-28T01:10:17.696Z,67
2023-04-28T01:11:24.586Z,70
2023-04-28T01:12:31.402Z,71
2023-04-28T01:13:38.246Z,65
2023-04-28T01:14:45.133Z,65
2023-04-28T01:15:51.948Z,59
2023-04-28T01:16:58.996Z,60
2023-04-28T01:18:05.842Z,57
2023-04-28T01:19:12.556Z,55
2023-04-28T01:20:19.319Z,54
2023-04-28T01:21:26.135Z,55
2023-04-28T01:22:36.319Z,52
2023-04-28T01:23:43.132Z,53
2023-04-28T01:24:49.972Z,55
2023-04-28T01:25:57.711Z,56
2023-04-28T01:27:04.492Z,65
2023-04-28T01:28:11.348Z,56
2023-04-28T01:29:18.156Z,60
2023-04-28T01:30:25.137Z,64
2023-04-28T01:31:31.977Z,60
2023-04-28T01:32:38.899Z,59
2023-04-28T01:33:45.754Z,61
2023-04-28T01:34:52.617Z,59
2023-04-28T01:35:59.513Z,61
2023-04-28T01:37:06.472Z,56
2023-04-28T01:38:13.272Z,56
2023-04-28T01:39:20.059Z,55
2023-04-28T01:40:26.897Z,55
2023-04-28T01:41:33.771Z,60
2023-04-28T01:42:40.546Z,58
2023-04-28T01:43:47.431Z,56
2023-04-28T01:44:54.272Z,56
2023-04-28T01:46:01.079Z,63
2023-04-28T01:47:07.998Z,60
2023-04-28T01:48:16.875Z,59
2023-04-28T01:49:23.749Z,60
2023-04-28T01:50:30.570Z,57
2023-04-28T01:51:37.401Z,59
2023-04-28T01:52:45.117Z,59
2023-04-28T01:53:51.964Z,57
2023-04-28T01:54:58.751Z,55
2023-04-28T01:56:05.573Z,52
2023-04-28T01:57:12.490Z,56
2023-04-28T01:58:19.284Z,50
2023-04-28T01:59:26.239Z,54
2023-04-28T02:00:33.119Z,55
2023-04-28T02:01:39.949Z,54
2023-04-28T02:02:47.600Z,54
2023-04-28T02:03:54.460Z,51
2023-04-28T02:05:01.286Z,50
2023-04-28T02:06:08.310Z,50
2023-04-28T02:07:15.124Z,54
2023-04-28T02:08:22.884Z,48
2023-04-28T02:09:29.774Z,51
2023-04-28T02:10:36.541Z,52
2023-04-28T02:11:43.579Z,52
2023-04-28T02:12:50.469Z,52
2023-04-28T02:13:57.220Z,52
2023-04-28T02:15:04.014Z,52
2023-04-28T02:16:11.141Z,47
2023-04-28T02:17:17.946Z,46
2023-04-28T02:18:24.925Z,43
2023-04-28T02:19:31.712Z,44
2023-04-28T02:20:38.539Z,43
2023-04-28T02:21:45.370Z,41
2023-04-28T02:22:52.169Z,42
2023-04-28T02:23:59.033Z,47
2023-04-28T02:25:05.909Z,45
2023-04-28T02:26:12.787Z,48
2023-04-28T02:27:19.575Z,55
2023-04-28T02:28:27.333Z,45
2023-04-28T02:29:34.284Z,50
2023-04-28T02:30:41.298Z,48
2023-04-28T02:31:48.871Z,50
2023-04-28T02:32:56.416Z,52
2023-04-28T02:34:03.195Z,48
2023-04-28T02:35:10.015Z,55
2023-04-28T02:36:16.956Z,55
2023-04-28T02:37:23.865Z,60
2023-04-28T02:38:30.859Z,61
2023-04-28T02:39:37.686Z,63
2023-04-28T02:40:44.539Z,68
2023-04-28T02:41:51.546Z,67
2023-04-28T02:42:58.465Z,69
2023-04-28T02:44:05.271Z,71
2023-04-28T02:45:12.301Z,69
2023-04-28T02:46:19.220Z,71
2023-04-28T02:47:26.079Z,65
2023-04-28T02:48:33.011Z,55
2023-04-28T02:49:39.859Z,52
2023-04-28T02:50:46.780Z,53
2023-04-28T02:51:53.723Z,54
2023-04-28T02:53:00.491Z,52
2023-04-28T02:54:07.343Z,48
2023-04-28T02:55:14.182Z,52
2023-04-28T02:56:21.061Z,53
2023-04-28T02:57:27.882Z,53
2023-04-28T02:58:34.650Z,52
2023-04-28T02:59:41.534Z,54
2023-04-28T03:00:48.473Z,56
2023-04-28T03:01:55.318Z,51
2023-04-28T03:03:02.246Z,46
2023-04-28T03:04:09.043Z,51
2023-04-28T03:05:15.869Z,45
2023-04-28T03:06:22.755Z,45
2023-04-28T03:07:29.537Z,51
2023-04-28T03:08:36.309Z,51
2023-04-28T03:09:43.154Z,47
2023-04-28T03:10:50.963Z,47
2023-04-28T03:11:57.890Z,49
2023-04-28T03:13:04.728Z,49
2023-04-28T03:14:11.522Z,45
2023-04-28T03:15:18.421Z,50
2023-04-28T03:16:26.284Z,53
2023-04-28T03:17:33.156Z,51
2023-04-28T03:18:40.092Z,52
2023-04-28T03:19:46.914Z,51
2023-04-28T03:20:53.805Z,57
2023-04-28T03:22:00.672Z,56
2023-04-28T03:23:07.543Z,53
2023-04-28T03:24:14.587Z,51
2023-04-28T03:25:21.357Z,46
2023-04-28T03:26:28.481Z,43
2023-04-28T03:27:35.406Z,42
2023-04-28T03:28:42.231Z,45
2023-04-28T03:29:49.092Z,44
2023-04-28T03:30:56.007Z,43
2023-04-28T03:32:02.837Z,43
2023-04-28T03:33:09.643Z,43
2023-04-28T03:34:16.648Z,44
2023-04-28T03:35:23.452Z,44
2023-04-28T03:36:30.247Z,43
2023-04-28T03:37:37.192Z,48
2023-04-28T03:38:44.009Z,45
2023-04-28T03:39:51.307Z,45
2023-04-28T03:40:58.145Z,44
2023-04-28T03:42:05.079Z,47
2023-04-28T03:43:12.001Z,46
2023-04-28T03:44:19.729Z,42
2023-04-28T03:45:26.537Z,46
2023-04-28T03:46:33.376Z,43
2023-04-28T03:47:40.183Z,45
2023-04-28T03:48:47.112Z,42
2023-04-28T03:49:53.959Z,43
2023-04-28T03:51:00.918Z,46
2023-04-28T03:52:07.737Z,43
2023-04-28T03:53:14.617Z,39
2023-04-28T03:54:21.844Z,43
2023-04-28T03:55:28.904Z,43
2023-04-28T03:56:35.685Z,40
2023-04-28T03:57:42.479Z,41
2023-04-28T03:58:49.448Z,41
2023-04-28T03:59:56.142Z,41
2023-04-28T04:01:02.971Z,40
2023-04-28T04:02:09.726Z,40
2023-04-28T04:03:16.659Z,39
2023-04-28T04:04:23.774Z,39
2023-04-28T04:05:30.027Z,38
2023-04-28T04:06:36.938Z,39
2023-04-28T04:07:43.686Z,39
2023-04-28T04:08:50.444Z,36
2023-04-28T04:09:58.050Z,38
2023-04-28T04:11:04.808Z,39
2023-04-28T04:12:11.804Z,37
2023-04-28T04:13:18.644Z,41
2023-04-28T04:14:25.468Z,40
2023-04-28T04:15:32.315Z,37
2023-04-28T04:16:39.248Z,38
2023-04-28T04:17:46.145Z,37
2023-04-28T04:18:52.966Z,38
2023-04-28T04:19:59.908Z,42
2023-04-28T04:21:06.941Z,43
2023-04-28T04:22:13.744Z,38
2023-04-28T04:23:20.634Z,39
2023-04-28T04:24:27.512Z,38
2023-04-28T04:25:34.274Z,38
2023-04-28T04:26:42.027Z,40
2023-04-28T04:27:48.918Z,41
2023-04-28T04:28:55.793Z,40
2023-04-28T04:30:02.738Z,43
2023-04-28T04:31:10.182Z,46
2023-04-28T04:32:17.056Z,45
2023-04-28T04:33:25.083Z,44
2023-04-28T04:34:31.960Z,45
2023-04-28T04:35:38.803Z,44
2023-04-28T04:36:45.693Z,46
2023-04-28T04:37:52.579Z,49
2023-04-28T04:38:59.623Z,46
2023-04-28T04:40:06.555Z,44
2023-04-28T04:41:13.598Z,44
2023-04-28T04:42:25.143Z,39
2023-04-28T04:43:27.760Z,39
2023-04-28T04:44:34.570Z,37
2023-04-28T04:45:41.410Z,39
2023-04-28T04:46:48.272Z,38
2023-04-28T04:47:55.154Z,37
2023-04-28T04:49:02.038Z,40
2023-04-28T04:50:08.997Z,41
2023-04-28T04:51:16.720Z,44
2023-04-28T04:52:23.469Z,38
2023-04-28T04:53:30.289Z,42
2023-04-28T04:54:37.244Z,37
2023-04-28T04:55:44.091Z,43
2023-04-28T04:56:51.085Z,45
2023-04-28T04:57:58.777Z,42
2023-04-28T04:59:05.610Z,42
2023-04-28T05:00:12.474Z,44
2023-04-28T05:01:19.713Z,47
2023-04-28T05:02:26.568Z,54
2023-04-28T05:03:33.528Z,53
2023-04-28T05:04:40.354Z,52
2023-04-28T05:05:46.981Z,50
2023-04-28T05:06:53.875Z,53
2023-04-28T05:08:00.879Z,48
2023-04-28T05:09:07.716Z,46
2023-04-28T05:10:14.615Z,43
2023-04-28T05:11:21.541Z,46
2023-04-28T05:12:28.521Z,45
2023-04-28T05:13:35.457Z,41
2023-04-28T05:14:42.275Z,42
2023-04-28T05:15:49.189Z,41
2023-04-28T05:16:56.096Z,44
2023-04-28T05:18:03.009Z,47
2023-04-28T05:19:10.346Z,42
2023-04-28T05:20:17.297Z,44
2023-04-28T05:21:24.195Z,39
2023-04-28T05:22:31.013Z,40
2023-04-28T05:23:37.897Z,38
2023-04-28T05:24:44.773Z,40
2023-04-28T05:25:51.696Z,34
2023-04-28T05:26:58.625Z,44
2023-04-28T05:28:05.507Z,33
2023-04-28T05:29:12.380Z,38
2023-04-28T05:30:19.251Z,36
2023-04-28T05:31:26.183Z,37
2023-04-28T05:32:33.120Z,36
2023-04-28T05:33:39.924Z,37
2023-04-28T05:34:46.802Z,44
2023-04-28T05:35:53.705Z,49
2023-04-28T05:37:00.570Z,43
2023-04-28T05:38:07.538Z,41
2023-04-28T05:39:14.405Z,46
2023-04-28T05:40:21.324Z,53
2023-04-28T05:41:28.366Z,48
2023-04-28T05:42:36.552Z,49
2023-04-28T05:43:43.400Z,50
2023-04-28T05:44:50.338Z,46
2023-04-28T05:45:58.109Z,41
2023-04-28T05:47:04.905Z,45
2023-04-28T05:48:11.889Z,47
2023-04-28T05:49:18.925Z,40
2023-04-28T05:50:25.835Z,41
2023-04-28T05:51:32.715Z,44
2023-04-28T05:52:39.573Z,37
2023-04-28T05:53:46.335Z,39
2023-04-28T05:54:54.284Z,39
2023-04-28T05:56:01.045Z,36
2023-04-28T05:57:08.165Z,37
2023-04-28T05:58:15.100Z,36
2023-04-28T05:59:22.848Z,36
2023-04-28T06:00:29.722Z,34
2023-04-28T06:01:37.478Z,33
2023-04-28T06:02:44.480Z,30
2023-04-28T06:03:51.472Z,29
2023-04-28T06:04:58.320Z,30
2023-04-28T06:06:09.007Z,28
2023-04-28T06:07:12.965Z,25
2023-04-28T06:08:20.735Z,27
2023-04-28T06:09:27.598Z,27
2023-04-28T06:10:34.392Z,26
2023-04-28T06:11:41.256Z,27
2023-04-28T06:12:49.092Z,26
2023-04-28T06:13:55.895Z,26
2023-04-28T06:15:04.131Z,28
2023-04-28T06:16:11.169Z,26
2023-04-28T06:17:18.145Z,32
2023-04-28T06:18:25.085Z,27
2023-04-28T06:19:31.928Z,29
2023-04-28T06:20:38.897Z,25
2023-04-28T06:21:45.724Z,24
2023-04-28T06:22:52.566Z,25
2023-04-28T06:23:59.620Z,27
2023-04-28T06:25:06.635Z,27
2023-04-28T06:26:15.191Z,27
2023-04-28T06:27:21.341Z,25
2023-04-28T06:28:28.185Z,28
2023-04-28T06:29:35.046Z,23
2023-04-28T06:30:41.877Z,23
2023-04-28T06:31:48.734Z,27
2023-04-28T06:32:55.886Z,21
2023-04-28T06:34:03.106Z,22
2023-04-28T06:35:09.967Z,24
2023-04-28T06:36:17.731Z,23
2023-04-28T06:37:24.665Z,24
2023-04-28T06:38:31.564Z,23
2023-04-28T06:39:38.551Z,24
2023-04-28T06:40:45.788Z,27
2023-04-28T06:41:52.681Z,24
2023-04-28T06:42:59.459Z,24
2023-04-28T06:44:06.408Z,25
2023-04-28T06:45:13.484Z,24
2023-04-28T06:46:20.373Z,24
2023-04-28T06:47:27.414Z,23
2023-04-28T06:48:34.348Z,21
2023-04-28T06:49:41.185Z,25
2023-04-28T06:50:48.346Z,22
2023-04-28T06:51:55.155Z,24
2023-04-28T06:53:01.934Z,24
2023-04-28T06:54:09.589Z,23
2023-04-28T06:55:16.389Z,25
2023-04-28T06:56:23.256Z,24
2023-04-28T06:57:33.574Z,22
2023-04-28T06:58:40.551Z,21
2023-04-28T06:59:47.442Z,21
2023-04-28T07:00:56.574Z,19
2023-04-28T07:02:03.377Z,21
2023-04-28T07:03:10.253Z,21
2023-04-28T07:04:17.233Z,26
2023-04-28T07:05:24.040Z,18
2023-04-28T07:06:30.989Z,23
2023-04-28T07:07:37.877Z,22
2023-04-28T07:08:46.385Z,21
2023-04-28T07:09:53.305Z,20
2023-04-28T07:11:00.089Z,22
2023-04-28T07:12:07.009Z,22
2023-04-28T07:13:14.093Z,20
2023-04-28T07:14:21.120Z,19
2023-04-28T07:15:28.794Z,21
2023-04-28T07:16:35.809Z,20
2023-04-28T07:17:47.729Z,22
2023-04-28T07:18:56.062Z,17
2023-04-28T07:20:02.940Z,16
2023-04-28T07:21:10.166Z,19
2023-04-28T07:22:17.013Z,16
2023-04-28T07:23:23.847Z,22
2023-04-28T07:24:31.450Z,15
2023-04-28T07:25:38.241Z,16
2023-04-28T07:26:45.090Z,17
2023-04-28T07:27:52.007Z,15
2023-04-28T07:28:58.862Z,16
2023-04-28T07:30:15.127Z,17
2023-04-28T07:31:12.696Z,18
2023-04-28T07:32:20.445Z,17
2023-04-28T07:33:27.334Z,17
2023-04-28T07:34:34.221Z,14
2023-04-28T07:35:41.013Z,20
2023-04-28T07:36:47.874Z,16
2023-04-28T07:37:54.781Z,15
2023-04-28T07:39:01.608Z,18
2023-04-28T07:40:08.447Z,20
2023-04-28T07:41:15.438Z,19
2023-04-28T07:42:22.240Z,17
2023-04-28T07:43:29.191Z,19
2023-04-28T07:44:36.337Z,18
2023-04-28T07:45:43.524Z,17
2023-04-28T07:46:52.206Z,19
2023-04-28T07:47:57.279Z,16
2023-04-28T07:49:04.110Z,18
2023-04-28T07:50:11.019Z,22
2023-04-28T07:51:17.914Z,17
2023-04-28T07:52:24.766Z,16
2023-04-28T07:53:31.628Z,21
2023-04-28T07:54:38.547Z,19
2023-04-28T07:55:45.504Z,19
2023-04-28T07:56:52.468Z,22
2023-04-28T07:58:00.714Z,15
2023-04-28T07:59:07.868Z,16
2023-04-28T08:00:14.809Z,16
2023-04-28T08:01:21.709Z,16
2023-04-28T08:02:28.761Z,13
2023-04-28T08:03:36.574Z,14
2023-04-28T08:04:43.455Z,12
2023-04-28T08:05:50.151Z,9
2023-04-28T08:06:56.969Z,12
2023-04-28T08:08:03.926Z,13
2023-04-28T08:09:10.936Z,11
2023-04-28T08:10:17.824Z,13
2023-04-28T08:11:24.706Z,12
2023-04-28T08:12:31.513Z,14
2023-04-28T08:13:38.466Z,13
2023-04-28T08:14:45.336Z,11
2023-04-28T08:15:52.185Z,13
2023-04-28T08:17:04.275Z,13
2023-04-28T08:18:11.077Z,15
2023-04-28T08:19:17.924Z,13
2023-04-28T08:20:24.983Z,17
2023-04-28T08:21:31.697Z,13
2023-04-28T08:22:38.583Z,13
2023-04-28T08:23:45.424Z,11
2023-04-28T08:24:52.447Z,13
2023-04-28T08:25:59.220Z,11
2023-04-28T08:27:06.065Z,13
2023-04-28T08:28:13.107Z,12
2023-04-28T08:29:19.904Z,13
2023-04-28T08:30:26.801Z,12
2023-04-28T08:31:33.764Z,13
2023-04-28T08:32:40.654Z,14
2023-04-28T08:33:47.614Z,13
2023-04-28T08:34:54.446Z,13
2023-04-28T08:36:01.297Z,13
2023-04-28T08:37:08.215Z,12
2023-04-28T08:38:15.805Z,11
2023-04-28T08:39:22.657Z,13
2023-04-28T08:40:29.582Z,12
2023-04-28T08:41:36.377Z,14
2023-04-28T08:42:43.262Z,11
2023-04-28T08:43:50.148Z,11
2023-04-28T08:44:57.074Z,12
2023-04-28T08:46:04.054Z,12
2023-04-28T08:47:10.897Z,11
2023-04-28T08:48:18.197Z,13
2023-04-28T08:49:25.050Z,13
2023-04-28T08:50:31.825Z,12
2023-04-28T08:51:40.144Z,11
2023-04-28T08:52:48.454Z,10
2023-04-28T08:55:02.343Z,11
2023-04-28T08:56:09.365Z,12
2023-04-28T08:57:16.236Z,10
2023-04-28T08:58:23.939Z,10
2023-04-28T08:59:30.983Z,12
2023-04-28T09:00:37.770Z,9
2023-04-28T09:01:44.669Z,11
2023-04-28T09:02:51.580Z,9
2023-04-28T09:03:58.480Z,12
2023-04-28T09:05:08.545Z,14
2023-04-28T09:06:15.136Z,10
2023-04-28T09:07:22.017Z,10
2023-04-28T09:08:28.972Z,9
2023-04-28T09:09:37.880Z,10
2023-04-28T09:10:42.597Z,9
2023-04-28T09:11:49.472Z,8
2023-04-28T09:12:58.980Z,10
2023-04-28T09:14:05.865Z,8
2023-04-28T09:15:15.416Z,11
2023-04-28T09:16:30.365Z,12
2023-04-28T09:17:42.386Z,11
2023-04-28T09:18:52.630Z,10
2023-04-28T09:19:59.432Z,8
2023-04-28T09:21:06.621Z,9
2023-04-28T09:22:26.018Z,9
2023-04-28T09:23:20.387Z,9
2023-04-28T09:24:27.240Z,9
2023-04-28T09:25:39.709Z,10
2023-04-28T09:26:56.993Z,10
2023-04-28T09:28:04.058Z,9
2023-04-28T09:29:21.224Z,7
2023-04-28T09:30:28.040Z,11
2023-04-28T09:31:37.514Z,8
2023-04-28T09:32:44.383Z,11
2023-04-28T09:33:51.305Z,12
2023-04-28T09:35:01.090Z,10
2023-04-28T09:36:08.024Z,9
2023-04-28T09:37:14.913Z,9
2023-04-28T09:38:21.682Z,10
2023-04-28T09:39:28.511Z,10
2023-04-28T09:40:35.460Z,9
2023-04-28T09:41:52.698Z,11
2023-04-28T09:43:02.351Z,8
2023-04-28T09:44:06.292Z,9
2023-04-28T09:45:15.889Z,12
2023-04-28T09:46:22.776Z,13
2023-04-28T09:47:32.233Z,12
2023-04-28T09:48:39.073Z,12
2023-04-28T09:49:46.708Z,10
2023-04-28T09:50:58.697Z,10
2023-04-28T09:52:05.471Z,9
2023-04-28T09:53:15.827Z,12
2023-04-28T09:54:22.716Z,10
2023-04-28T09:55:29.605Z,13
2023-04-28T09:56:37.300Z,15
2023-04-28T09:57:46.377Z,9
2023-04-28T09:58:52.664Z,11
2023-04-28T10:00:02.338Z,8
2023-04-28T10:01:09.433Z,9
2023-04-28T10:02:36.147Z,11
2023-04-28T10:03:23.569Z,9
2023-04-28T10:04:30.113Z,12
2023-04-28T10:05:36.803Z,14
2023-04-28T10:06:43.678Z,22
2023-04-28T10:07:50.475Z,8
2023-04-28T10:08:57.332Z,10
2023-04-28T10:10:04.241Z,9
2023-04-28T10:11:11.937Z,9
2023-04-28T10:12:19.042Z,7
2023-04-28T10:13:25.908Z,7
2023-04-28T10:14:32.763Z,8
2023-04-28T10:15:39.752Z,9
2023-04-28T10:16:46.644Z,11
2023-04-28T10:17:53.496Z,11
2023-04-28T10:19:00.243Z,10
2023-04-28T10:20:07.095Z,6
2023-04-28T10:21:14.176Z,9
2023-04-28T10:22:21.865Z,10
2023-04-28T10:23:39.011Z,10
2023-04-28T10:24:57.010Z,8
2023-04-28T10:26:14.266Z,9
2023-04-28T10:27:23.943Z,10
2023-04-28T10:28:33.758Z,10
2023-04-28T10:29:40.657Z,8
2023-04-28T10:30:47.468Z,10
2023-04-28T10:32:02.067Z,10
2023-04-28T10:33:17.256Z,9
2023-04-28T10:34:26.840Z,8
2023-04-28T10:35:33.626Z,9
2023-04-28T10:36:48.464Z,8
2023-04-28T10:37:55.449Z,11
2023-04-28T10:39:05.133Z,8
2023-04-28T10:40:12.128Z,9
2023-04-28T10:41:27.139Z,9
2023-04-28T10:42:34.021Z,8
2023-04-28T10:43:48.602Z,9
2023-04-28T10:44:55.438Z,9
2023-04-28T10:46:02.450Z,9
2023-04-28T10:47:09.310Z,10
2023-04-28T10:48:16.103Z,8
2023-04-28T10:49:23.047Z,14
2023-04-28T10:50:38.923Z,11
2023-04-28T10:51:36.775Z,11
2023-04-28T10:52:43.747Z,7
2023-04-28T10:53:51.434Z,9
2023-04-28T10:54:58.296Z,15
2023-04-28T10:56:15.587Z,9
2023-04-28T10:57:25.142Z,7
2023-04-28T10:58:32.028Z,9
2023-04-28T10:59:38.783Z,8
2023-04-28T11:00:45.586Z,10
2023-04-28T11:01:52.517Z,8
2023-04-28T11:02:59.435Z,8
2023-04-28T11:04:06.926Z,11
2023-04-28T11:05:13.882Z,9
2023-04-28T11:06:20.514Z,9
2023-04-28T11:07:30.297Z,9
2023-04-28T11:08:37.139Z,8
2023-04-28T11:09:44.041Z,7
2023-04-28T11:10:50.892Z,9
2023-04-28T11:12:08.072Z,10
2023-04-28T11:13:14.876Z,10
2023-04-28T11:14:32.116Z,11
2023-04-28T11:15:39.522Z,9
2023-04-28T11:16:46.617Z,8
2023-04-28T11:17:59.180Z,9
2023-04-28T11:19:06.097Z,9
2023-04-28T11:20:12.950Z,9
2023-04-28T11:21:19.739Z,17
2023-04-28T11:22:27.550Z,11
2023-04-28T11:23:34.361Z,11
2023-04-28T11:24:42.221Z,9
2023-04-28T11:25:57.250Z,8
2023-04-28T11:27:04.364Z,9
2023-04-28T11:28:12.027Z,8
2023-04-28T11:29:18.912Z,7
2023-04-28T11:30:36.158Z,8
2023-04-28T11:31:43.135Z,8
2023-04-28T11:32:54.132Z,11
2023-04-28T11:34:01.060Z,11
2023-04-28T11:35:13.264Z,9
2023-04-28T11:36:21.072Z,10
2023-04-28T11:37:27.870Z,8
2023-04-28T11:38:34.736Z,11
2023-04-28T11:39:46.769Z,10
2023-04-28T11:40:53.661Z,8
2023-04-28T11:42:00.515Z,9
2023-04-28T11:43:12.584Z,7
2023-04-28T11:44:19.442Z,7
2023-04-28T11:45:26.537Z,7
2023-04-28T11:46:33.448Z,10
2023-04-28T11:47:40.337Z,7
2023-04-28T11:48:47.202Z,8
2023-04-28T11:50:02.324Z,8
2023-04-28T11:51:09.445Z,10
2023-04-28T11:52:26.625Z,8
2023-04-28T11:53:33.597Z,8
2023-04-28T11:54:45.539Z,9
2023-04-28T11:55:57.610Z,8
2023-04-28T11:57:10.491Z,8
2023-04-28T11:58:19.956Z,9
2023-04-28T11:59:27.213Z,11
2023-04-28T12:00:36.590Z,7
2023-04-28T12:01:44.346Z,9
2023-04-28T12:02:54.182Z,9
2023-04-28T12:04:00.988Z,9
2023-04-28T12:05:07.971Z,7
2023-04-28T12:06:15.108Z,8
2023-04-28T12:07:22.027Z,9
2023-04-28T12:08:29.849Z,10
2023-04-28T12:09:36.616Z,9
2023-04-28T12:10:50.270Z,9
2023-04-28T12:12:07.442Z,9
2023-04-28T12:13:15.383Z,8
2023-04-28T12:14:22.244Z,7
2023-04-28T12:15:31.469Z,9
2023-04-28T12:16:43.876Z,9
2023-04-28T12:17:51.676Z,8
2023-04-28T12:18:57.794Z,9
2023-04-28T12:20:05.698Z,9
2023-04-28T12:21:12.751Z,8
2023-04-28T12:22:24.802Z,8
2023-04-28T12:23:31.700Z,9
2023-04-28T12:24:38.692Z,8
2023-04-28T12:25:45.827Z,6
2023-04-28T12:26:52.726Z,8
2023-04-28T12:28:04.977Z,7
2023-04-28T12:29:11.744Z,7
2023-04-28T12:30:29.983Z,7
2023-04-28T12:31:36.969Z,7
2023-04-28T12:32:55.557Z,7
2023-04-28T12:34:02.419Z,9
2023-04-28T12:35:09.269Z,10
2023-04-28T12:36:16.100Z,8
2023-04-28T12:37:22.968Z,7
2023-04-28T12:38:30.984Z,10
2023-04-28T12:39:39.629Z,7
2023-04-28T12:40:45.482Z,8
2023-04-28T12:41:53.674Z,11
2023-04-28T12:43:02.875Z,7
2023-04-28T12:44:10.778Z,6
2023-04-28T12:45:17.814Z,8
2023-04-28T12:46:24.874Z,8
2023-04-28T12:47:36.176Z,9
2023-04-28T12:48:44.827Z,6
2023-04-28T12:49:52.582Z,7
2023-04-28T12:50:59.556Z,7
2023-04-28T12:52:06.308Z,8
2023-04-28T12:53:13.167Z,8
2023-04-28T12:54:19.961Z,7
2023-04-28T12:55:26.939Z,9
2023-04-28T12:56:33.889Z,7
2023-04-28T12:57:41.094Z,8
2023-04-28T12:58:48.256Z,8
2023-04-28T12:59:55.326Z,6
2023-04-28T13:01:02.446Z,9
2023-04-28T13:02:09.361Z,7
2023-04-28T13:03:16.455Z,8
2023-04-28T13:04:23.493Z,6
2023-04-28T13:05:30.147Z,8
2023-04-28T13:06:37.032Z,7
2023-04-28T13:07:43.894Z,6
2023-04-28T13:08:51.851Z,6
2023-04-28T13:09:58.712Z,7
2023-04-28T13:11:10.061Z,8
2023-04-28T13:12:12.528Z,6
2023-04-28T13:13:19.604Z,6
2023-04-28T13:14:27.450Z,7
2023-04-28T13:15:44.579Z,9
2023-04-28T13:16:52.228Z,9
2023-04-28T13:18:00.325Z,8
2023-04-28T13:19:07.138Z,7
2023-04-28T13:20:14.040Z,7
2023-04-28T13:21:21.809Z,7
2023-04-28T13:22:28.741Z,7
2023-04-28T13:23:35.648Z,9
2023-04-28T13:24:42.592Z,7
2023-04-28T13:25:49.577Z,7
2023-04-28T13:26:56.442Z,6
2023-04-28T13:28:03.327Z,7
2023-04-28T13:29:10.156Z,6
2023-04-28T13:30:17.029Z,7
2023-04-28T13:31:24.165Z,7
2023-04-28T13:32:31.923Z,5
2023-04-28T13:33:38.833Z,7
2023-04-28T13:34:57.094Z,7
2023-04-28T13:36:08.344Z,9
2023-04-28T13:37:25.227Z,8
2023-04-28T13:38:32.110Z,6
2023-04-28T13:39:38.954Z,6
2023-04-28T13:40:45.870Z,7
2023-04-28T13:41:53.803Z,10
2023-04-28T13:43:00.916Z,93
2023-04-28T13:44:07.764Z,60
2023-04-28T13:45:16.937Z,23
2023-04-28T13:46:21.741Z,12
2023-04-28T13:47:28.459Z,9
2023-04-28T13:48:35.365Z,9
2023-04-28T13:49:42.213Z,8
2023-04-28T13:50:50.417Z,8
2023-04-28T13:51:57.276Z,6
2023-04-28T13:53:04.075Z,6
2023-04-28T13:54:10.879Z,11
2023-04-28T13:55:17.810Z,10
2023-04-28T13:56:28.512Z,7
2023-04-28T13:57:35.347Z,6
2023-04-28T13:58:42.155Z,7
2023-04-28T13:59:50.175Z,14
2023-04-28T14:00:57.233Z,10
2023-04-28T14:02:03.890Z,6
2023-04-28T14:03:10.983Z,7
2023-04-28T14:04:17.938Z,11
2023-04-28T14:05:24.696Z,8
2023-04-28T14:06:33.033Z,8
2023-04-28T14:07:38.452Z,9
2023-04-28T14:08:48.273Z,8
2023-04-28T14:09:55.302Z,6
2023-04-28T14:11:02.189Z,8
2023-04-28T14:12:09.129Z,7
2023-04-28T14:13:15.941Z,7
2023-04-28T14:14:22.838Z,8
2023-04-28T14:15:32.576Z,9
2023-04-28T14:16:39.444Z,6
2023-04-28T14:17:46.332Z,11
2023-04-28T14:18:53.066Z,7
2023-04-28T14:19:59.922Z,7
2023-04-28T14:21:06.952Z,8
2023-04-28T14:22:14.022Z,8
2023-04-28T14:23:21.843Z,8
2023-04-28T14:24:28.712Z,8
2023-04-28T14:25:35.776Z,6
2023-04-28T14:26:42.640Z,8
2023-04-28T14:27:50.564Z,9
2023-04-28T14:28:57.479Z,8
2023-04-28T14:30:04.703Z,7
2023-04-28T14:31:11.821Z,6
2023-04-28T14:32:18.686Z,6
2023-04-28T14:33:26.451Z,6
2023-04-28T14:34:33.299Z,9
2023-04-28T14:35:40.274Z,8
2023-04-28T14:36:47.421Z,7
2023-04-28T14:37:54.249Z,6
2023-04-28T14:39:01.143Z,10
2023-04-28T14:40:07.980Z,7
2023-04-28T14:41:15.849Z,8
2023-04-28T14:42:23.729Z,7
2023-04-28T14:43:31.631Z,6
2023-04-28T14:44:39.608Z,7
2023-04-28T14:45:46.466Z,8
2023-04-28T14:46:54.289Z,8
2023-04-28T14:48:01.165Z,8
2023-04-28T14:49:08.020Z,8
2023-04-28T14:50:14.954Z,7
2023-04-28T14:51:21.790Z,8
2023-04-28T14:52:28.649Z,8
2023-04-28T14:53:35.552Z,8
2023-04-28T14:54:43.429Z,7
2023-04-28T14:55:50.530Z,7
2023-04-28T14:56:57.440Z,8
2023-04-28T14:58:04.375Z,8
2023-04-28T14:59:11.271Z,8
2023-04-28T15:00:18.128Z,6
2023-04-28T15:01:25.886Z,7
2023-04-28T15:02:32.949Z,6
2023-04-28T15:03:39.766Z,8
2023-04-28T15:04:47.689Z,7
2023-04-28T15:05:54.214Z,8
2023-04-28T15:07:02.791Z,8
2023-04-28T15:08:09.816Z,7
2023-04-28T15:09:16.688Z,8
2023-04-28T15:10:23.569Z,6
2023-04-28T15:11:30.455Z,6
2023-04-28T15:12:38.039Z,7
2023-04-28T15:13:45.975Z,6
2023-04-28T15:14:53.015Z,9
2023-04-28T15:15:59.954Z,8
2023-04-28T15:17:06.878Z,9
2023-04-28T15:18:13.700Z,6
2023-04-28T15:19:20.600Z,6
2023-04-28T15:20:29.215Z,10
2023-04-28T15:21:34.392Z,6
2023-04-28T15:22:41.192Z,6
2023-04-28T15:23:48.016Z,7
2023-04-28T15:24:55.812Z,8
2023-04-28T15:26:02.845Z,7
2023-04-28T15:27:10.228Z,10
2023-04-28T15:28:17.382Z,6
2023-04-28T15:29:24.232Z,8
2023-04-28T15:30:32.113Z,7
2023-04-28T15:31:39.013Z,6
2023-04-28T15:32:45.974Z,8
2023-04-28T15:33:52.808Z,8
2023-04-28T15:34:59.717Z,9
2023-04-28T15:36:06.678Z,7
2023-04-28T15:37:14.143Z,9
2023-04-28T15:38:31.270Z,9
2023-04-28T15:39:38.157Z,7
2023-04-28T15:40:45.024Z,7
2023-04-28T15:41:51.916Z,7
2023-04-28T15:42:58.899Z,7
2023-04-28T15:44:05.722Z,8
2023-04-28T15:45:13.209Z,7
2023-04-28T15:46:20.150Z,7
2023-04-28T15:47:27.502Z,8
2023-04-28T15:48:34.696Z,6
2023-04-28T15:49:41.684Z,7
2023-04-28T15:50:49.457Z,8
2023-04-28T15:51:56.412Z,7
2023-04-28T15:53:03.230Z,10
2023-04-28T15:54:11.013Z,8
2023-04-28T15:55:18.112Z,7
2023-04-28T15:56:26.049Z,8
2023-04-28T15:57:33.803Z,8
2023-04-28T15:58:40.654Z,8
2023-04-28T15:59:48.469Z,11
2023-04-28T16:00:56.276Z,9
2023-04-28T16:02:03.147Z,8
2023-04-28T16:03:12.218Z,6
2023-04-28T16:04:19.249Z,7
2023-04-28T16:05:25.892Z,7
2023-04-28T16:06:32.770Z,9
2023-04-28T16:07:39.652Z,7
2023-04-28T16:08:47.301Z,8
2023-04-28T16:09:54.178Z,8
2023-04-28T16:11:01.280Z,9
2023-04-28T16:12:10.589Z,10
2023-04-28T16:13:17.249Z,8
2023-04-28T16:14:24.121Z,9
2023-04-28T16:15:30.955Z,9
2023-04-28T16:16:37.823Z,11